Armstrong Mills, Ohio
Current Conditions -  °F | °C
As of 2:53 AM on Monday 26 Jan 2015 (Local Time) from KHLG Reporting Station
Light Snow Light Snow  
Wind Chill: 21°   Ceiling: 500
Heat Index: 29°   Visibility: 2mi
Dew Point: 27°   Wind: 8mph
Humidity: 92%   Direction: 20°NNE
Pressure: 29.7"   Gusts: NA
Location:  39.9375°N, 80.8976°W
Report Text: KHLG 260753Z AUTO 02007KT 2SM -SN BR OVC005 M02/M03 A2970 RMK AO2 SNB0655 SLP070 P0000 T10171028
Loading
Personal Weather Stations






























Interactive Weather Map New forecast layout! Learn more

10-Day Weather Forecast

Advertisements
Track Severe Weather on mobile